Time;durP1;ratioP1;P1;durP2;ratioP2;P2;SDS_P1;SDS_P2;PMS_P1;PMS_P2;Temp;Humidity;BMP_temperature;BMP_pressure;BME280_temperature;BME280_humidity;BME280_pressure;Samples;Min_cycle;Max_cycle;Signal;HPM_P1;HPM_P2
2023/09/01 00:01:34;;;;;;;4.40;2.00;;;;;;;;;;5104069;28;20500;-64
2023/09/01 00:04:00;;;;;;;4.22;2.70;;;;;;;;;;5093125;28;20392;-64
2023/09/01 00:06:26;;;;;;;4.22;2.53;;;;;;;;;;5093200;28;20390;-64
2023/09/01 00:08:52;;;;;;;5.75;3.15;;;;;;;;;;5112887;28;20020;-64
2023/09/01 00:11:19;;;;;;;5.93;2.85;;;;;;;;;;5113364;28;20034;-64
2023/09/01 00:13:46;;;;;;;4.90;2.85;;;;;;;;;;5113009;28;20473;-64
2023/09/01 00:16:12;;;;;;;7.90;2.70;;;;;;;;;;5113448;28;20114;-64
2023/09/01 00:18:38;;;;;;;3.08;2.55;;;;;;;;;;5112593;28;20039;-64
2023/09/01 00:21:04;;;;;;;7.22;3.42;;;;;;;;;;5113099;28;20036;-64
2023/09/01 00:23:30;;;;;;;4.78;2.47;;;;;;;;;;5106531;28;20406;-64
2023/09/01 00:25:58;;;;;;;4.57;2.33;;;;;;;;;;5093086;28;20032;-64
2023/09/01 00:28:24;;;;;;;3.83;2.42;;;;;;;;;;5098918;28;20475;-64
2023/09/01 00:30:54;;;;;;;5.45;2.53;;;;;;;;;;5113353;28;20028;-64
2023/09/01 00:33:20;;;;;;;7.25;2.60;;;;;;;;;;5113611;28;20028;-64
2023/09/01 00:35:46;;;;;;;3.00;2.47;;;;;;;;;;5113185;28;20027;-64
2023/09/01 00:38:12;;;;;;;7.22;2.70;;;;;;;;;;5112637;28;20055;-64
2023/09/01 00:40:38;;;;;;;5.25;2.70;;;;;;;;;;5106362;28;20025;-64
2023/09/01 00:43:04;;;;;;;5.05;2.97;;;;;;;;;;5113236;28;20058;-64
2023/09/01 00:45:30;;;;;;;8.15;2.80;;;;;;;;;;5113023;28;20465;-64
2023/09/01 00:47:56;;;;;;;4.20;2.05;;;;;;;;;;5113042;28;20051;-64
2023/09/01 00:50:22;;;;;;;5.32;2.85;;;;;;;;;;5113127;28;20362;-64
2023/09/01 00:52:49;;;;;;;6.03;2.88;;;;;;;;;;5113006;28;20023;-64
2023/09/01 00:55:15;;;;;;;3.95;3.13;;;;;;;;;;5113984;28;20031;-64
2023/09/01 00:57:41;;;;;;;5.43;2.45;;;;;;;;;;5111153;28;20011;-64
2023/09/01 01:00:07;;;;;;;4.75;2.20;;;;;;;;;;5116578;28;20050;-64
2023/09/01 01:02:33;;;;;;;5.57;2.70;;;;;;;;;;5117193;28;20024;-64
2023/09/01 01:04:59;;;;;;;8.82;2.90;;;;;;;;;;5116778;28;20586;-64
2023/09/01 01:07:31;;;;;;;3.50;2.63;;;;;;;;;;5116875;28;20486;-64
2023/09/01 01:10:14;;;;;;;4.32;2.33;;;;;;;;;;5113564;28;20023;-64
2023/09/01 01:12:50;;;;;;;5.93;2.75;;;;;;;;;;5116317;28;20035;-64
2023/09/01 01:15:16;;;;;;;4.53;2.58;;;;;;;;;;5116456;28;20027;-64
2023/09/01 01:17:46;;;;;;;3.70;2.50;;;;;;;;;;5098282;28;20464;-64
2023/09/01 01:20:21;;;;;;;5.55;3.00;;;;;;;;;;5115409;28;20122;-64
2023/09/01 01:22:49;;;;;;;5.70;3.22;;;;;;;;;;5115893;28;20023;-64
2023/09/01 01:25:15;;;;;;;4.28;2.63;;;;;;;;;;5114711;28;20057;-64
2023/09/01 01:27:43;;;;;;;8.23;2.95;;;;;;;;;;5114450;28;20024;-64
2023/09/01 01:30:09;;;;;;;6.80;2.40;;;;;;;;;;5116411;28;20057;-64
2023/09/01 01:32:36;;;;;;;5.93;3.17;;;;;;;;;;5116928;28;20059;-64
2023/09/01 01:35:11;;;;;;;7.82;4.20;;;;;;;;;;5116218;28;20024;-64
2023/09/01 01:37:55;;;;;;;8.07;3.25;;;;;;;;;;5116300;28;20019;-64
2023/09/01 01:40:23;;;;;;;5.88;2.72;;;;;;;;;;5114857;28;20027;-64
2023/09/01 01:42:50;;;;;;;7.60;2.67;;;;;;;;;;5097434;28;20020;-64
2023/09/01 01:45:20;;;;;;;6.65;2.58;;;;;;;;;;5116013;28;20125;-64
2023/09/01 01:47:46;;;;;;;5.97;3.08;;;;;;;;;;5116145;28;20051;-64
2023/09/01 01:50:12;;;;;;;4.32;2.60;;;;;;;;;;5115628;28;20104;-64
2023/09/01 01:52:38;;;;;;;6.15;3.00;;;;;;;;;;5116125;28;20057;-64
2023/09/01 01:55:07;;;;;;;5.00;2.92;;;;;;;;;;5114628;28;20031;-64
2023/09/01 01:57:33;;;;;;;3.40;2.80;;;;;;;;;;5116137;28;20036;-64
2023/09/01 01:59:59;;;;;;;4.53;2.58;;;;;;;;;;5115820;28;20019;-64
2023/09/01 02:02:25;;;;;;;3.72;2.75;;;;;;;;;;5115788;28;20099;-64
2023/09/01 02:04:51;;;;;;;5.53;2.40;;;;;;;;;;5115660;28;20031;-64
2023/09/01 02:07:17;;;;;;;4.03;2.50;;;;;;;;;;5114047;28;20035;-64
2023/09/01 02:09:43;;;;;;;4.22;2.78;;;;;;;;;;5115528;28;20381;-64
2023/09/01 02:12:09;;;;;;;6.90;2.75;;;;;;;;;;5114063;28;20027;-64
2023/09/01 02:14:36;;;;;;;4.97;2.30;;;;;;;;;;5115375;28;20027;-64
2023/09/01 02:17:03;;;;;;;5.28;2.78;;;;;;;;;;5115082;28;20026;-64
2023/09/01 02:19:29;;;;;;;3.15;2.40;;;;;;;;;;5095099;28;20051;-64
2023/09/01 02:21:55;;;;;;;3.78;2.55;;;;;;;;;;5095251;28;20028;-64
2023/09/01 02:24:21;;;;;;;3.10;2.72;;;;;;;;;;5094869;28;20075;-64
2023/09/01 02:26:47;;;;;;;6.28;2.67;;;;;;;;;;5094967;28;20028;-64
2023/09/01 02:29:13;;;;;;;4.18;2.25;;;;;;;;;;5111141;28;20485;-64
2023/09/01 02:31:39;;;;;;;6.13;2.67;;;;;;;;;;5115224;28;20106;-64
2023/09/01 02:34:05;;;;;;;4.22;2.30;;;;;;;;;;5096125;28;20546;-64
2023/09/01 02:36:35;;;;;;;5.45;2.70;;;;;;;;;;5094779;28;20028;-64
2023/09/01 02:39:01;;;;;;;5.18;2.40;;;;;;;;;;5110089;28;20028;-64
2023/09/01 02:41:28;;;;;;;6.57;2.70;;;;;;;;;;5115233;28;20099;-64
2023/09/01 02:43:54;;;;;;;6.30;3.10;;;;;;;;;;5114700;28;20120;-64
2023/09/01 02:46:20;;;;;;;4.47;2.88;;;;;;;;;;5102814;28;20056;-64
2023/09/01 02:48:47;;;;;;;5.82;2.95;;;;;;;;;;5074221;28;20055;-64
2023/09/01 02:51:13;;;;;;;4.18;2.58;;;;;;;;;;5074138;28;20047;-64
2023/09/01 02:53:39;;;;;;;4.40;2.70;;;;;;;;;;5073370;28;20098;-64
2023/09/01 02:56:05;;;;;;;4.45;2.83;;;;;;;;;;5073442;28;20028;-64
2023/09/01 02:58:31;;;;;;;5.88;2.95;;;;;;;;;;5072695;28;20478;-64
2023/09/01 03:00:57;;;;;;;5.80;2.70;;;;;;;;;;5074054;28;20029;-64
2023/09/01 03:03:24;;;;;;;4.82;2.72;;;;;;;;;;5071708;28;20024;-64
2023/09/01 03:05:50;;;;;;;3.70;2.80;;;;;;;;;;5073417;28;20070;-64
2023/09/01 03:08:18;;;;;;;6.95;2.92;;;;;;;;;;5074231;28;20424;-64
2023/09/01 03:10:44;;;;;;;4.38;2.75;;;;;;;;;;5073758;28;20079;-64
2023/09/01 03:13:10;;;;;;;5.10;2.65;;;;;;;;;;5073542;28;20035;-64
2023/09/01 03:15:36;;;;;;;6.97;2.50;;;;;;;;;;5073766;28;20028;-64
2023/09/01 03:18:03;;;;;;;2.55;2.30;;;;;;;;;;5072604;28;20029;-64
2023/09/01 03:20:29;;;;;;;10.90;3.50;;;;;;;;;;5073685;28;20108;-64
2023/09/01 03:22:55;;;;;;;6.95;3.22;;;;;;;;;;5073214;28;20044;-64
2023/09/01 03:25:21;;;;;;;6.10;3.05;;;;;;;;;;5073624;28;20033;-64
2023/09/01 03:27:47;;;;;;;6.28;2.75;;;;;;;;;;5073917;28;20024;-64
2023/09/01 03:30:13;;;;;;;6.43;3.05;;;;;;;;;;5053944;28;20111;-64
2023/09/01 03:32:39;;;;;;;4.68;2.60;;;;;;;;;;5054330;28;20021;-64
2023/09/01 03:35:06;;;;;;;3.45;2.35;;;;;;;;;;5072289;28;20036;-64
2023/09/01 03:37:32;;;;;;;5.50;2.95;;;;;;;;;;5073530;28;20355;-64
2023/09/01 03:39:58;;;;;;;5.82;3.22;;;;;;;;;;5071387;28;20028;-64
2023/09/01 03:42:26;;;;;;;7.32;3.10;;;;;;;;;;5073357;28;20016;-64
2023/09/01 03:44:52;;;;;;;4.32;2.42;;;;;;;;;;5057661;28;20037;-64
2023/09/01 03:47:19;;;;;;;5.60;2.63;;;;;;;;;;5080905;28;20048;-64
2023/09/01 03:49:45;;;;;;;6.35;2.97;;;;;;;;;;5093342;28;20020;-64
2023/09/01 03:52:11;;;;;;;5.03;2.67;;;;;;;;;;5099028;28;20019;-64
2023/09/01 03:54:37;;;;;;;3.88;2.13;;;;;;;;;;5113233;28;20374;-64
2023/09/01 03:57:03;;;;;;;5.38;3.10;;;;;;;;;;5095516;28;20024;-64
2023/09/01 03:59:29;;;;;;;5.88;2.80;;;;;;;;;;5112076;28;20028;-64
2023/09/01 04:01:55;;;;;;;4.13;2.78;;;;;;;;;;5110523;28;20024;-64
2023/09/01 04:04:21;;;;;;;5.93;2.80;;;;;;;;;;5095115;28;20115;-64
2023/09/01 04:06:47;;;;;;;7.10;2.83;;;;;;;;;;5093481;28;20450;-64
2023/09/01 04:09:13;;;;;;;5.72;3.30;;;;;;;;;;5093236;28;20035;-64
2023/09/01 04:11:39;;;;;;;6.15;2.67;;;;;;;;;;5093174;28;20008;-64
2023/09/01 04:14:07;;;;;;;4.95;2.92;;;;;;;;;;5112251;28;20146;-64
2023/09/01 04:16:32;;;;;;;6.25;2.75;;;;;;;;;;5113451;28;20042;-64
2023/09/01 04:18:58;;;;;;;5.50;2.70;;;;;;;;;;5106395;28;20466;-64
2023/09/01 04:21:24;;;;;;;5.32;2.67;;;;;;;;;;5093130;28;20062;-64
2023/09/01 04:23:50;;;;;;;3.33;2.38;;;;;;;;;;5109896;28;20037;-64
2023/09/01 04:26:16;;;;;;;7.65;2.80;;;;;;;;;;5095096;28;20024;-64
2023/09/01 04:28:42;;;;;;;6.03;2.95;;;;;;;;;;5095074;28;20095;-64
2023/09/01 04:31:14;;;;;;;6.88;2.72;;;;;;;;;;5115512;28;20564;-64
2023/09/01 04:33:40;;;;;;;5.32;2.72;;;;;;;;;;5117177;28;20105;-64
2023/09/01 04:36:06;;;;;;;6.40;2.90;;;;;;;;;;5116283;28;20055;-64
2023/09/01 04:38:32;;;;;;;6.47;2.25;;;;;;;;;;5117428;28;20031;-64
2023/09/01 04:40:59;;;;;;;4.82;2.85;;;;;;;;;;5117085;28;20019;-64
2023/09/01 04:43:26;;;;;;;5.95;3.13;;;;;;;;;;5116947;28;20028;-64
2023/09/01 04:45:53;;;;;;;5.00;2.53;;;;;;;;;;5098754;28;20165;-64
2023/09/01 04:48:19;;;;;;;6.55;2.80;;;;;;;;;;5116045;28;20434;-64
2023/09/01 04:50:45;;;;;;;5.32;2.72;;;;;;;;;;5117200;28;20035;-64
2023/09/01 04:53:11;;;;;;;5.68;3.25;;;;;;;;;;5117178;28;20069;-64
2023/09/01 04:55:37;;;;;;;4.75;2.83;;;;;;;;;;5098766;28;20023;-64
2023/09/01 04:58:03;;;;;;;8.15;2.90;;;;;;;;;;5116561;28;20070;-64
2023/09/01 05:00:29;;;;;;;8.23;3.13;;;;;;;;;;5115473;28;20111;-67
2023/09/01 05:02:55;;;;;;;7.32;2.85;;;;;;;;;;5106052;28;20102;-64
2023/09/01 05:05:21;;;;;;;4.72;2.83;;;;;;;;;;5116766;28;20031;-64
2023/09/01 05:10:51;;;;;;;7.45;3.38;;;;;;;;;;5110196;28;20062;-64
2023/09/01 05:13:17;;;;;;;4.78;2.78;;;;;;;;;;5115097;28;20034;-64
2023/09/01 05:15:43;;;;;;;5.00;2.80;;;;;;;;;;5098329;28;20385;-64
2023/09/01 05:18:09;;;;;;;5.93;2.80;;;;;;;;;;5116615;28;20062;-64
2023/09/01 05:20:35;;;;;;;5.00;3.13;;;;;;;;;;5116573;28;20028;-64
2023/09/01 05:23:01;;;;;;;6.30;2.70;;;;;;;;;;5116210;28;20042;-64
2023/09/01 05:25:33;;;;;;;5.60;3.03;;;;;;;;;;5116371;28;20035;-63
2023/09/01 05:27:59;;;;;;;5.22;2.92;;;;;;;;;;5115214;28;20023;-64
2023/09/01 05:30:26;;;;;;;6.35;3.08;;;;;;;;;;5115042;28;20032;-64
2023/09/01 05:32:52;;;;;;;5.40;2.85;;;;;;;;;;5112450;28;20499;-64
2023/09/01 05:35:18;;;;;;;5.32;2.80;;;;;;;;;;5098216;28;20027;-64
2023/09/01 05:37:44;;;;;;;8.27;3.17;;;;;;;;;;5115649;28;20042;-64
2023/09/01 05:40:10;;;;;;;7.32;2.63;;;;;;;;;;5116372;28;20477;-64
2023/09/01 05:42:36;;;;;;;6.53;3.33;;;;;;;;;;5114099;28;20024;-64
2023/09/01 05:45:02;;;;;;;7.50;3.10;;;;;;;;;;5116005;28;20123;-64
2023/09/01 05:47:28;;;;;;;5.53;3.17;;;;;;;;;;5114563;28;20126;-64
2023/09/01 05:49:54;;;;;;;8.30;3.10;;;;;;;;;;5116324;28;20456;-64
2023/09/01 05:52:20;;;;;;;6.53;3.28;;;;;;;;;;5116199;28;20072;-64
2023/09/01 05:54:46;;;;;;;4.97;3.60;;;;;;;;;;5115914;28;20492;-64
2023/09/01 05:57:12;;;;;;;6.00;3.15;;;;;;;;;;5111273;28;20030;-64
2023/09/01 05:59:38;;;;;;;7.55;3.17;;;;;;;;;;5097649;28;20031;-64
2023/09/01 06:02:04;;;;;;;6.32;3.17;;;;;;;;;;5113740;28;20031;-64
2023/09/01 06:04:30;;;;;;;5.53;3.45;;;;;;;;;;5115660;28;20042;-64
2023/09/01 06:06:56;;;;;;;6.55;3.35;;;;;;;;;;5115737;28;20112;-64
2023/09/01 06:09:22;;;;;;;5.93;3.28;;;;;;;;;;5115675;28;20057;-64
2023/09/01 06:11:48;;;;;;;5.20;2.85;;;;;;;;;;5115205;28;20381;-64
2023/09/01 06:14:14;;;;;;;4.88;3.03;;;;;;;;;;5115821;28;20019;-64
2023/09/01 06:16:40;;;;;;;6.45;3.00;;;;;;;;;;5114331;28;20032;-64
2023/09/01 06:19:06;;;;;;;6.22;3.10;;;;;;;;;;5115722;28;20047;-64
2023/09/01 06:21:32;;;;;;;6.68;3.10;;;;;;;;;;5115233;28;20028;-64
2023/09/01 06:23:58;;;;;;;5.78;3.10;;;;;;;;;;5114325;28;20032;-64
2023/09/01 06:26:24;;;;;;;9.50;3.40;;;;;;;;;;5113433;28;20063;-64
2023/09/01 06:28:50;;;;;;;7.38;3.47;;;;;;;;;;5094288;28;20026;-64
2023/09/01 06:31:16;;;;;;;8.30;4.32;;;;;;;;;;5115178;28;20533;-64
2023/09/01 06:33:43;;;;;;;7.30;3.17;;;;;;;;;;5115187;28;20410;-64
2023/09/01 06:36:13;;;;;;;6.88;2.95;;;;;;;;;;5115158;28;20027;-64
2023/09/01 06:38:40;;;;;;;6.50;3.03;;;;;;;;;;5114730;28;20037;-64
2023/09/01 06:41:06;;;;;;;5.78;2.80;;;;;;;;;;5110709;28;20027;-64
2023/09/01 06:43:32;;;;;;;5.97;2.97;;;;;;;;;;5114911;28;20144;-64
2023/09/01 06:45:58;;;;;;;7.05;3.20;;;;;;;;;;5112261;28;20048;-64
2023/09/01 06:48:25;;;;;;;5.40;3.08;;;;;;;;;;5114263;28;20019;-64
2023/09/01 06:50:51;;;;;;;9.07;4.05;;;;;;;;;;5111662;28;20183;-64
2023/09/01 06:53:17;;;;;;;6.45;3.17;;;;;;;;;;5113573;28;20016;-64
2023/09/01 06:55:46;;;;;;;8.55;3.63;;;;;;;;;;5108350;28;20070;-64
2023/09/01 06:58:12;;;;;;;11.38;3.60;;;;;;;;;;5099103;28;20047;-64
2023/09/01 07:00:38;;;;;;;5.22;2.63;;;;;;;;;;5093596;28;20027;-64
2023/09/01 07:03:05;;;;;;;6.28;3.17;;;;;;;;;;5087970;28;20080;-63
2023/09/01 07:05:31;;;;;;;6.32;3.17;;;;;;;;;;5113602;28;20042;-66
2023/09/01 07:07:57;;;;;;;7.15;2.55;;;;;;;;;;5104091;28;20040;-67
2023/09/01 07:10:23;;;;;;;4.95;2.67;;;;;;;;;;5111184;28;20031;-67
2023/09/01 07:12:49;;;;;;;4.72;2.60;;;;;;;;;;5112403;28;20031;-63
2023/09/01 07:15:15;;;;;;;8.27;2.83;;;;;;;;;;5114295;28;20030;-66
2023/09/01 07:17:41;;;;;;;4.00;3.15;;;;;;;;;;5113968;28;20030;-64
2023/09/01 07:20:09;;;;;;;6.45;2.63;;;;;;;;;;5118138;27;20385;-63
2023/09/01 07:22:36;;;;;;;9.27;3.28;;;;;;;;;;5113676;28;20020;-67
2023/09/01 07:25:03;;;;;;;5.25;2.50;;;;;;;;;;5113962;28;20063;-68
2023/09/01 07:27:29;;;;;;;6.25;3.08;;;;;;;;;;5113437;28;20030;-63
2023/09/01 07:29:55;;;;;;;4.75;2.33;;;;;;;;;;5107969;28;20114;-62
2023/09/01 07:32:21;;;;;;;8.63;3.22;;;;;;;;;;5106250;28;20397;-63
2023/09/01 07:34:48;;;;;;;4.95;2.90;;;;;;;;;;5113813;28;20031;-64
2023/09/01 07:37:14;;;;;;;6.68;3.20;;;;;;;;;;5113903;28;20538;-66
2023/09/01 07:39:40;;;;;;;7.13;2.83;;;;;;;;;;5108881;28;20032;-66
2023/09/01 07:42:07;;;;;;;6.28;3.30;;;;;;;;;;5103084;28;20019;-63
2023/09/01 07:44:33;;;;;;;9.20;3.03;;;;;;;;;;5081734;28;20443;-66
2023/09/01 07:46:59;;;;;;;5.75;2.75;;;;;;;;;;5092212;28;20089;-64
2023/09/01 07:49:25;;;;;;;8.38;3.50;;;;;;;;;;5108018;28;20112;-65
2023/09/01 07:51:51;;;;;;;5.82;3.03;;;;;;;;;;5111424;28;20416;-68
2023/09/01 07:54:17;;;;;;;5.82;3.15;;;;;;;;;;5113843;28;20051;-61
2023/09/01 07:56:43;;;;;;;7.40;3.00;;;;;;;;;;5112816;28;20056;-61
2023/09/01 07:59:09;;;;;;;10.38;3.15;;;;;;;;;;5108554;28;20048;-60
2023/09/01 08:01:35;;;;;;;6.55;3.47;;;;;;;;;;5103652;28;20415;-62
2023/09/01 08:04:02;;;;;;;6.88;3.45;;;;;;;;;;5112094;28;20028;-64
2023/09/01 08:06:31;;;;;;;4.35;3.00;;;;;;;;;;5112451;28;20112;-63
2023/09/01 08:08:57;;;;;;;6.88;3.88;;;;;;;;;;5113313;28;20091;-62
2023/09/01 08:11:23;;;;;;;8.02;3.80;;;;;;;;;;5112541;28;20503;-62
2023/09/01 08:13:49;;;;;;;6.35;2.80;;;;;;;;;;5093180;28;20020;-60
2023/09/01 08:16:18;;;;;;;9.10;2.65;;;;;;;;;;5103521;28;20080;-62
2023/09/01 08:18:44;;;;;;;6.70;2.92;;;;;;;;;;5103615;28;20054;-63
2023/09/01 08:21:11;;;;;;;3.88;2.85;;;;;;;;;;5109450;28;20034;-64
2023/09/01 08:23:40;;;;;;;6.07;2.72;;;;;;;;;;5112827;28;20400;-59
2023/09/01 08:26:07;;;;;;;7.82;2.90;;;;;;;;;;5107942;28;20086;-59
2023/09/01 08:28:33;;;;;;;5.60;2.40;;;;;;;;;;5112273;28;20096;-68
2023/09/01 08:31:05;;;;;;;5.45;3.30;;;;;;;;;;5101991;28;20031;-61
2023/09/01 08:33:32;;;;;;;5.05;2.38;;;;;;;;;;5099763;28;20055;-76
2023/09/01 08:36:03;;;;;;;5.45;2.63;;;;;;;;;;5100367;28;20119;-62
2023/09/01 08:38:29;;;;;;;3.17;2.70;;;;;;;;;;5113038;28;20065;-61
2023/09/01 08:41:02;;;;;;;5.55;3.00;;;;;;;;;;5112508;28;20019;-63
2023/09/01 08:43:30;;;;;;;3.40;2.77;;;;;;;;;;5112931;28;20066;-66
2023/09/01 08:45:56;;;;;;;7.55;3.15;;;;;;;;;;5112467;28;20085;-59
2023/09/01 08:48:22;;;;;;;3.78;2.80;;;;;;;;;;5099150;28;20035;-64
2023/09/01 08:50:49;;;;;;;6.47;2.85;;;;;;;;;;5112470;28;20031;-64
2023/09/01 08:53:15;;;;;;;4.10;2.88;;;;;;;;;;5112145;28;20319;-65
2023/09/01 08:55:41;;;;;;;6.38;2.83;;;;;;;;;;5112035;28;20060;-62
2023/09/01 08:58:07;;;;;;;5.75;3.13;;;;;;;;;;5111943;28;20032;-62
2023/09/01 09:00:33;;;;;;;6.47;3.30;;;;;;;;;;5100544;28;20032;-62
2023/09/01 09:03:00;;;;;;;5.50;3.03;;;;;;;;;;5092658;28;20069;-62
2023/09/01 09:05:27;;;;;;;5.45;3.08;;;;;;;;;;5092552;28;20028;-62
2023/09/01 09:08:01;;;;;;;6.25;3.15;;;;;;;;;;5106273;28;20028;-62
2023/09/01 09:10:36;;;;;;;4.72;2.63;;;;;;;;;;5094624;28;20034;-62
2023/09/01 09:13:04;;;;;;;4.57;2.65;;;;;;;;;;5112440;28;20024;-62
2023/09/01 09:15:30;;;;;;;10.25;3.53;;;;;;;;;;5112797;28;20512;-62
2023/09/01 09:17:56;;;;;;;7.90;3.65;;;;;;;;;;5115925;28;20028;-60
2023/09/01 09:20:22;;;;;;;7.57;3.10;;;;;;;;;;5116277;28;20039;-62
2023/09/01 09:22:56;;;;;;;4.55;2.55;;;;;;;;;;5115581;28;20030;-64
2023/09/01 09:25:32;;;;;;;7.95;3.33;;;;;;;;;;5116480;28;20039;-70
2023/09/01 09:27:58;;;;;;;4.55;2.88;;;;;;;;;;5108974;28;20081;-64
2023/09/01 09:30:28;;;;;;;4.50;2.83;;;;;;;;;;5115074;28;20038;-76
2023/09/01 09:33:04;;;;;;;6.47;2.70;;;;;;;;;;5114851;28;20111;-61
2023/09/01 09:35:30;;;;;;;6.10;2.78;;;;;;;;;;5116478;28;20034;-64
2023/09/01 09:37:58;;;;;;;4.47;2.63;;;;;;;;;;5096284;28;20473;-62
2023/09/01 09:40:24;;;;;;;8.00;3.03;;;;;;;;;;5096011;28;20035;-65
2023/09/01 09:42:50;;;;;;;6.60;3.45;;;;;;;;;;5108787;28;20044;-60
2023/09/01 09:45:30;;;;;;;4.13;2.95;;;;;;;;;;5107555;28;20071;-65
2023/09/01 09:47:57;;;;;;;5.63;2.75;;;;;;;;;;5115391;28;20115;-62
2023/09/01 09:50:27;;;;;;;8.27;3.42;;;;;;;;;;5115496;28;20047;-62
2023/09/01 09:53:03;;;;;;;5.28;3.15;;;;;;;;;;5116260;28;20027;-62
2023/09/01 09:55:30;;;;;;;4.72;3.53;;;;;;;;;;5114247;27;20020;-70
2023/09/01 09:58:00;;;;;;;7.40;3.58;;;;;;;;;;5115041;28;20023;-70
2023/09/01 10:00:28;;;;;;;6.07;3.50;;;;;;;;;;5116167;28;20027;-70
2023/09/01 10:02:55;;;;;;;4.40;2.85;;;;;;;;;;5116019;28;20145;-69
2023/09/01 10:05:24;;;;;;;6.20;2.80;;;;;;;;;;5115929;28;20165;-70
2023/09/01 10:07:51;;;;;;;4.30;2.78;;;;;;;;;;5115761;28;20028;-70
2023/09/01 10:10:17;;;;;;;5.00;3.38;;;;;;;;;;5115646;28;20477;-70
2023/09/01 10:12:43;;;;;;;7.05;3.50;;;;;;;;;;5115096;28;20473;-70
2023/09/01 10:15:11;;;;;;;7.53;3.55;;;;;;;;;;5115488;28;20080;-70
2023/09/01 10:17:38;;;;;;;7.47;2.90;;;;;;;;;;5115090;28;20422;-70
2023/09/01 10:20:07;;;;;;;6.22;2.90;;;;;;;;;;5115015;28;20027;-70
2023/09/01 10:22:38;;;;;;;4.70;3.08;;;;;;;;;;5115928;28;20047;-70
2023/09/01 10:25:17;;;;;;;4.03;2.88;;;;;;;;;;5114884;28;20067;-59
2023/09/01 10:27:59;;;;;;;4.75;3.92;;;;;;;;;;5114201;28;20055;-59
2023/09/01 10:30:26;;;;;;;4.43;2.70;;;;;;;;;;5115499;28;20019;-65
2023/09/01 10:33:04;;;;;;;5.38;2.97;;;;;;;;;;5114642;28;20392;-68
2023/09/01 10:35:42;;;;;;;3.25;2.50;;;;;;;;;;5114799;28;20020;-69
2023/09/01 10:38:14;;;;;;;4.32;2.30;;;;;;;;;;5113737;28;20400;-70
2023/09/01 10:40:41;;;;;;;4.55;2.08;;;;;;;;;;5114544;28;20019;-70
2023/09/01 10:43:07;;;;;;;4.82;2.60;;;;;;;;;;5095724;28;20461;-68
2023/09/01 10:45:33;;;;;;;4.35;2.67;;;;;;;;;;5114926;28;20043;-65
2023/09/01 10:47:59;;;;;;;8.00;3.58;;;;;;;;;;5114362;28;20040;-59
2023/09/01 10:50:25;;;;;;;5.75;2.90;;;;;;;;;;5115123;28;20054;-68
2023/09/01 10:53:09;;;;;;;6.45;3.45;;;;;;;;;;5114281;28;20405;-62
2023/09/01 10:55:55;;;;;;;6.03;3.65;;;;;;;;;;5114585;28;20027;-62
2023/09/01 10:58:21;;;;;;;6.30;3.70;;;;;;;;;;5112088;28;20461;-72
2023/09/01 11:00:49;;;;;;;6.45;3.30;;;;;;;;;;5094620;28;20030;-72
2023/09/01 11:03:31;;;;;;;5.72;3.00;;;;;;;;;;5102768;28;20018;-72
2023/09/01 11:05:57;;;;;;;3.08;2.63;;;;;;;;;;5099353;27;20046;-61
2023/09/01 11:08:25;;;;;;;5.40;2.50;;;;;;;;;;5096297;28;20426;-60
2023/09/01 11:10:55;;;;;;;3.58;2.40;;;;;;;;;;5114569;28;20085;-60
2023/09/01 11:13:25;;;;;;;4.22;2.47;;;;;;;;;;5095697;28;20389;-60
2023/09/01 11:15:51;;;;;;;4.63;2.47;;;;;;;;;;5114443;28;20110;-60
2023/09/01 11:18:21;;;;;;;5.55;3.72;;;;;;;;;;5114586;28;20035;-61
2023/09/01 11:20:48;;;;;;;8.00;5.10;;;;;;;;;;5113767;28;20042;-61
2023/09/01 11:23:24;;;;;;;7.03;3.28;;;;;;;;;;5114465;28;20027;-61
2023/09/01 11:26:00;;;;;;;3.90;3.00;;;;;;;;;;5114128;28;20585;-61
2023/09/01 11:28:26;;;;;;;8.25;2.92;;;;;;;;;;5113658;28;20031;-61
2023/09/01 11:30:56;;;;;;;9.02;3.05;;;;;;;;;;5114386;28;20020;-61
2023/09/01 11:33:22;;;;;;;5.03;2.40;;;;;;;;;;5113987;28;20019;-61
2023/09/01 11:35:49;;;;;;;4.90;2.35;;;;;;;;;;5113086;28;20456;-61
2023/09/01 11:38:21;;;;;;;2.72;2.33;;;;;;;;;;5113516;28;20538;-60
2023/09/01 11:40:48;;;;;;;3.65;2.70;;;;;;;;;;5113760;28;20028;-62
2023/09/01 11:43:14;;;;;;;3.88;2.75;;;;;;;;;;5113538;28;20020;-60
2023/09/01 11:45:47;;;;;;;2.65;2.42;;;;;;;;;;5113887;28;20381;-59
2023/09/01 11:48:13;;;;;;;5.43;2.60;;;;;;;;;;5096311;28;20052;-60
2023/09/01 11:50:45;;;;;;;4.00;2.63;;;;;;;;;;5093948;28;20077;-61
2023/09/01 11:53:21;;;;;;;3.40;2.47;;;;;;;;;;5103792;28;20024;-61
2023/09/01 11:55:47;;;;;;;3.65;2.70;;;;;;;;;;5113601;28;20019;-61
2023/09/01 11:58:13;;;;;;;6.38;3.55;;;;;;;;;;5113570;28;20034;-61
2023/09/01 12:00:39;;;;;;;4.50;2.42;;;;;;;;;;5113869;28;20020;-60
2023/09/01 12:03:05;;;;;;;4.10;2.88;;;;;;;;;;5113111;28;20032;-61
2023/09/01 12:05:36;;;;;;;2.63;2.42;;;;;;;;;;5112332;28;20055;-73
2023/09/01 12:08:03;;;;;;;3.13;2.10;;;;;;;;;;5112003;28;20038;-65
2023/09/01 12:10:29;;;;;;;6.32;2.50;;;;;;;;;;5094375;28;20453;-66
2023/09/01 12:13:07;;;;;;;4.28;2.58;;;;;;;;;;5111237;28;20362;-63
2023/09/01 12:15:33;;;;;;;3.67;2.47;;;;;;;;;;5092856;28;20114;-74
2023/09/01 12:18:19;;;;;;;5.97;2.70;;;;;;;;;;5112505;28;20450;-69
2023/09/01 12:20:45;;;;;;;5.63;2.85;;;;;;;;;;5105037;28;20073;-72
2023/09/01 12:23:10;;;;;;;4.47;2.65;;;;;;;;;;5113095;28;21521;-64
2023/09/01 12:25:36;;;;;;;4.75;2.90;;;;;;;;;;5111487;28;20036;-63
2023/09/01 12:28:02;;;;;;;3.15;2.60;;;;;;;;;;5107089;28;20368;-65
2023/09/01 12:30:28;;;;;;;2.67;2.28;;;;;;;;;;5110466;28;20032;-64
2023/09/01 12:32:54;;;;;;;2.83;2.50;;;;;;;;;;5108306;28;20027;-65
2023/09/01 12:35:20;;;;;;;4.60;3.10;;;;;;;;;;5110300;28;20089;-66
2023/09/01 12:37:46;;;;;;;4.57;3.08;;;;;;;;;;5110714;28;20051;-64
2023/09/01 12:40:12;;;;;;;3.58;2.85;;;;;;;;;;5110471;28;20031;-63
2023/09/01 12:42:38;;;;;;;5.22;3.40;;;;;;;;;;5110545;28;20491;-71
2023/09/01 12:45:05;;;;;;;4.35;3.03;;;;;;;;;;5111174;28;20112;-73
2023/09/01 12:47:31;;;;;;;3.92;3.55;;;;;;;;;;5082313;28;20077;-75
2023/09/01 12:49:57;;;;;;;5.47;3.90;;;;;;;;;;5109345;28;20036;-67
2023/09/01 12:52:23;;;;;;;6.47;3.25;;;;;;;;;;5112317;28;20015;-68
2023/09/01 12:54:49;;;;;;;4.43;3.75;;;;;;;;;;5116306;28;20050;-68
2023/09/01 12:57:15;;;;;;;3.40;3.10;;;;;;;;;;5115096;28;20489;-66
2023/09/01 12:59:41;;;;;;;10.30;3.58;;;;;;;;;;5113757;28;20058;-69
2023/09/01 13:02:07;;;;;;;2.75;2.55;;;;;;;;;;5103449;27;20105;-66
2023/09/01 13:04:34;;;;;;;5.53;2.83;;;;;;;;;;5106482;28;20035;-66
2023/09/01 13:07:00;;;;;;;4.68;3.42;;;;;;;;;;5114974;28;20047;-64
2023/09/01 13:09:26;;;;;;;6.68;3.50;;;;;;;;;;5116021;28;20403;-60
2023/09/01 13:11:52;;;;;;;3.50;3.20;;;;;;;;;;5113328;28;20038;-60
2023/09/01 13:14:18;;;;;;;7.07;3.72;;;;;;;;;;5114150;28;20428;-61
2023/09/01 13:16:44;;;;;;;5.15;3.78;;;;;;;;;;5113194;28;20024;-65
2023/09/01 13:19:10;;;;;;;5.70;3.90;;;;;;;;;;5113732;27;20024;-62
2023/09/01 13:21:36;;;;;;;4.10;3.55;;;;;;;;;;5122548;27;20089;-64
2023/09/01 13:24:02;;;;;;;3.00;2.75;;;;;;;;;;5117156;27;20048;-61
2023/09/01 13:26:28;;;;;;;3.92;3.53;;;;;;;;;;5126571;27;20045;-61
2023/09/01 13:28:54;;;;;;;4.28;3.30;;;;;;;;;;5125691;27;20027;-67
2023/09/01 13:31:20;;;;;;;4.10;3.10;;;;;;;;;;5114049;27;20500;-61
2023/09/01 13:33:46;;;;;;;5.53;3.63;;;;;;;;;;5119588;27;20016;-59
2023/09/01 13:36:12;;;;;;;4.32;3.20;;;;;;;;;;5124457;27;20024;-59
2023/09/01 13:38:38;;;;;;;3.58;3.22;;;;;;;;;;5115293;27;20098;-65
2023/09/01 13:41:07;;;;;;;4.60;3.30;;;;;;;;;;5113983;27;20023;-63
2023/09/01 13:43:33;;;;;;;4.47;3.40;;;;;;;;;;5113282;27;20012;-67
2023/09/01 13:46:18;;;;;;;3.80;3.03;;;;;;;;;;5130700;27;20048;-70
2023/09/01 13:48:44;;;;;;;3.65;3.30;;;;;;;;;;5116357;27;20019;-76
2023/09/01 13:51:10;;;;;;;5.75;3.00;;;;;;;;;;5128124;27;20105;-78
2023/09/01 13:53:36;;;;;;;3.17;2.97;;;;;;;;;;5122068;27;20092;-68
2023/09/01 13:56:02;;;;;;;3.95;3.47;;;;;;;;;;5105304;28;20453;-68
2023/09/01 13:58:28;;;;;;;4.72;3.40;;;;;;;;;;5112096;27;20543;-59
2023/09/01 14:00:54;;;;;;;3.80;3.28;;;;;;;;;;5112447;27;20045;-65
2023/09/01 14:03:20;;;;;;;3.83;3.38;;;;;;;;;;5112954;27;20027;-59
2023/09/01 14:05:46;;;;;;;4.43;3.47;;;;;;;;;;5112901;27;20031;-59
2023/09/01 14:08:12;;;;;;;3.17;2.80;;;;;;;;;;5092672;27;20078;-58
2023/09/01 14:10:38;;;;;;;4.57;2.90;;;;;;;;;;5112159;27;20042;-58
2023/09/01 14:13:04;;;;;;;4.47;2.60;;;;;;;;;;5109336;27;20103;-58
2023/09/01 14:15:31;;;;;;;3.50;2.92;;;;;;;;;;5115780;27;20027;-58
2023/09/01 14:17:57;;;;;;;4.32;2.65;;;;;;;;;;5120733;27;20089;-58
2023/09/01 14:20:25;;;;;;;4.75;2.90;;;;;;;;;;5120459;27;20023;-59
2023/09/01 14:22:52;;;;;;;3.53;2.88;;;;;;;;;;5117668;27;20450;-59
2023/09/01 14:25:18;;;;;;;2.92;2.45;;;;;;;;;;5109155;28;20118;-59
2023/09/01 14:27:44;;;;;;;4.38;2.83;;;;;;;;;;5109547;28;20548;-59
2023/09/01 14:36:16;;;;;;;3.75;2.95;;;;;;;;;;5104385;27;20031;-59
2023/09/01 14:38:43;;;;;;;3.10;2.53;;;;;;;;;;5111820;28;20020;-59
2023/09/01 14:41:15;;;;;;;3.42;2.50;;;;;;;;;;5110883;27;20030;-62
2023/09/01 14:43:40;;;;;;;6.30;3.33;;;;;;;;;;5106219;27;20026;-69
2023/09/01 14:46:06;;;;;;;4.60;2.90;;;;;;;;;;5112321;27;20051;-58
2023/09/01 14:48:32;;;;;;;4.60;3.10;;;;;;;;;;5116648;27;20476;-57
2023/09/01 14:50:59;;;;;;;7.63;3.50;;;;;;;;;;5113904;27;20019;-58
2023/09/01 14:53:25;;;;;;;3.50;2.75;;;;;;;;;;5121780;27;20042;-59